createdAt,value
2022-09-07T00:00:24.101Z,100.00
2022-09-07T00:03:11.571Z,100.00
2022-09-07T00:05:59.177Z,100.00
2022-09-07T00:08:46.449Z,100.00
2022-09-07T00:11:33.710Z,100.00
2022-09-07T00:14:21.418Z,100.00
2022-09-07T00:17:08.669Z,100.00
2022-09-07T00:19:56.161Z,100.00
2022-09-07T00:22:43.461Z,100.00
2022-09-07T00:25:32.171Z,100.00
2022-09-07T00:28:19.521Z,100.00
2022-09-07T00:31:16.374Z,100.00
2022-09-07T00:34:03.702Z,100.00
2022-09-07T00:36:51.033Z,100.00
2022-09-07T00:39:38.614Z,100.00
2022-09-07T00:42:26.151Z,100.00
2022-09-07T00:45:20.989Z,100.00
2022-09-07T00:48:15.044Z,100.00
2022-09-07T00:51:06.885Z,100.00
2022-09-07T00:54:00.477Z,100.00
2022-09-07T00:56:49.832Z,100.00
2022-09-07T00:59:44.929Z,100.00
2022-09-07T01:02:32.476Z,100.00
2022-09-07T01:05:26.618Z,100.00
2022-09-07T01:08:14.193Z,100.00
2022-09-07T01:11:01.593Z,100.00
2022-09-07T01:13:50.701Z,100.00
2022-09-07T01:17:15.705Z,100.00
2022-09-07T01:20:35.327Z,100.00
2022-09-07T01:23:47.510Z,100.00
2022-09-07T01:26:46.978Z,100.00
2022-09-07T01:29:52.525Z,100.00
2022-09-07T01:32:48.111Z,100.00
2022-09-07T01:35:50.429Z,100.00
2022-09-07T01:38:46.541Z,100.00
2022-09-07T01:41:45.965Z,100.00
2022-09-07T01:44:40.061Z,100.00
2022-09-07T01:47:33.891Z,100.00
2022-09-07T01:50:38.137Z,100.00
2022-09-07T01:53:34.767Z,100.00
2022-09-07T01:56:34.985Z,100.00
2022-09-07T01:59:32.544Z,100.00
2022-09-07T02:02:24.829Z,100.00
2022-09-07T02:05:54.094Z,100.00
2022-09-07T02:08:49.300Z,100.00
2022-09-07T02:11:43.598Z,100.00
2022-09-07T02:14:36.769Z,100.00
2022-09-07T02:17:33.883Z,100.00
2022-09-07T02:20:32.517Z,100.00
2022-09-07T02:23:25.197Z,100.00
2022-09-07T02:26:19.710Z,100.00
2022-09-07T02:29:07.792Z,100.00
2022-09-07T02:31:55.077Z,100.00
2022-09-07T02:34:42.424Z,100.00
2022-09-07T02:37:31.176Z,100.00
2022-09-07T02:40:18.637Z,100.00
2022-09-07T02:43:08.811Z,100.00
2022-09-07T02:46:26.700Z,100.00
2022-09-07T02:49:44.495Z,100.00
2022-09-07T02:52:40.612Z,100.00
2022-09-07T02:55:58.769Z,100.00
2022-09-07T02:59:00.868Z,100.00
2022-09-07T03:02:09.836Z,100.00
2022-09-07T03:05:20.658Z,100.00
2022-09-07T03:08:21.893Z,100.00
2022-09-07T03:11:09.293Z,100.00
2022-09-07T03:14:16.117Z,100.00
2022-09-07T03:17:03.449Z,100.00
2022-09-07T03:19:50.684Z,100.00
2022-09-07T03:22:38.097Z,100.00
2022-09-07T03:25:25.380Z,100.00
2022-09-07T03:28:12.674Z,100.00
2022-09-07T03:31:01.977Z,100.00
2022-09-07T03:33:49.339Z,100.00
2022-09-07T03:36:36.985Z,100.00
2022-09-07T03:39:26.472Z,100.00
2022-09-07T03:42:13.607Z,100.00
2022-09-07T03:45:00.789Z,100.00
2022-09-07T03:47:49.128Z,100.00
2022-09-07T03:50:36.482Z,100.00
2022-09-07T03:53:23.765Z,100.00
2022-09-07T03:56:13.921Z,100.00
2022-09-07T03:59:01.327Z,100.00
2022-09-07T04:01:48.638Z,100.00
2022-09-07T04:04:35.930Z,100.00
2022-09-07T04:07:23.217Z,100.00
2022-09-07T04:10:10.537Z,100.00
2022-09-07T04:12:57.802Z,100.00
2022-09-07T04:15:45.473Z,100.00
2022-09-07T04:18:36.620Z,100.00
2022-09-07T04:21:25.266Z,100.00
2022-09-07T04:24:16.549Z,100.00
2022-09-07T04:27:03.985Z,100.00
2022-09-07T04:29:51.265Z,100.00
2022-09-07T04:32:38.550Z,100.00
2022-09-07T04:35:25.832Z,100.00
2022-09-07T04:38:15.008Z,100.00
2022-09-07T04:41:09.371Z,100.00
2022-09-07T04:43:59.523Z,100.00
2022-09-07T04:46:46.805Z,100.00
2022-09-07T04:49:34.113Z,100.00
2022-09-07T04:52:21.477Z,100.00
2022-09-07T04:55:09.433Z,100.00
2022-09-07T04:57:56.680Z,100.00
2022-09-07T05:00:44.025Z,100.00
2022-09-07T05:03:33.582Z,100.00
2022-09-07T05:06:22.495Z,100.00
2022-09-07T05:09:10.434Z,100.00
2022-09-07T05:11:57.717Z,100.00
2022-09-07T05:14:45.034Z,100.00
2022-09-07T05:17:32.306Z,100.00
2022-09-07T05:20:21.054Z,100.00
2022-09-07T05:23:08.796Z,100.00
2022-09-07T05:25:56.068Z,100.00
2022-09-07T05:28:43.605Z,100.00
2022-09-07T05:31:31.580Z,100.00
2022-09-07T05:34:34.254Z,100.00
2022-09-07T05:37:21.565Z,100.00
2022-09-07T05:40:09.601Z,100.00
2022-09-07T05:42:56.898Z,100.00
2022-09-07T05:45:44.195Z,100.00
2022-09-07T05:48:31.779Z,100.00
2022-09-07T05:51:19.414Z,100.00
2022-09-07T05:54:06.842Z,100.00
2022-09-07T05:56:54.138Z,100.00
2022-09-07T05:59:41.402Z,100.00
2022-09-07T06:02:28.754Z,100.00
2022-09-07T06:05:16.253Z,100.00
2022-09-07T06:08:04.308Z,100.00
2022-09-07T06:10:51.744Z,100.00
2022-09-07T06:13:39.999Z,100.00
2022-09-07T06:16:27.336Z,100.00
2022-09-07T06:19:14.755Z,100.00
2022-09-07T06:22:02.010Z,100.00
2022-09-07T06:24:49.253Z,100.00
2022-09-07T06:27:36.525Z,100.00
2022-09-07T06:30:25.208Z,100.00
2022-09-07T06:33:12.519Z,100.00
2022-09-07T06:36:02.255Z,100.00
2022-09-07T06:38:51.070Z,100.00
2022-09-07T06:44:45.568Z,100.00
2022-09-07T06:47:32.830Z,100.00
2022-09-07T06:50:20.113Z,100.00
2022-09-07T06:56:17.261Z,100.00
2022-09-07T06:59:04.547Z,100.00
2022-09-07T07:01:51.808Z,100.00
2022-09-07T07:04:41.188Z,100.00
2022-09-07T07:07:29.479Z,100.00
2022-09-07T07:10:19.739Z,100.00
2022-09-07T07:13:09.561Z,100.00
2022-09-07T07:16:08.517Z,100.00
2022-09-07T07:18:56.372Z,100.00
2022-09-07T07:22:10.407Z,100.00
2022-09-07T07:24:51.267Z,100.00
2022-09-07T07:27:39.565Z,100.00
2022-09-07T07:30:26.946Z,100.00
2022-09-07T07:33:14.333Z,100.00
2022-09-07T07:36:19.408Z,100.00
2022-09-07T07:39:06.754Z,100.00
2022-09-07T07:41:55.493Z,100.00
2022-09-07T07:44:44.937Z,100.00
2022-09-07T07:47:32.242Z,100.00
2022-09-07T07:50:35.090Z,100.00
2022-09-07T07:56:29.600Z,100.00
2022-09-07T07:59:16.823Z,100.00
2022-09-07T08:02:08.557Z,100.00
2022-09-07T08:04:56.000Z,100.00
2022-09-07T08:07:43.246Z,100.00
2022-09-07T08:10:30.464Z,100.00
2022-09-07T08:13:18.260Z,100.00
2022-09-07T08:16:05.856Z,100.00
2022-09-07T08:18:53.610Z,100.00
2022-09-07T08:21:40.817Z,100.00
2022-09-07T08:24:28.040Z,100.00
2022-09-07T08:27:19.680Z,100.00
2022-09-07T08:30:07.716Z,100.00
2022-09-07T08:32:55.021Z,100.00
2022-09-07T08:35:42.366Z,100.00
2022-09-07T08:38:31.582Z,100.00
2022-09-07T08:41:56.090Z,100.00
2022-09-07T08:45:11.553Z,100.00
2022-09-07T08:47:59.045Z,100.00
2022-09-07T08:51:02.667Z,100.00
2022-09-07T08:53:50.106Z,100.00
2022-09-07T08:57:20.653Z,100.00
2022-09-07T09:00:26.966Z,100.00
2022-09-07T09:03:30.003Z,100.00
2022-09-07T09:06:49.774Z,100.00
2022-09-07T09:09:47.812Z,100.00
2022-09-07T09:12:56.292Z,98.99
2022-09-07T09:16:10.163Z,100.00
2022-09-07T09:19:20.537Z,100.00
2022-09-07T09:22:14.426Z,100.00
2022-09-07T09:25:15.681Z,100.00
2022-09-07T09:28:03.129Z,100.00
2022-09-07T09:30:50.493Z,100.00
2022-09-07T09:33:37.867Z,100.00
2022-09-07T09:36:34.152Z,99.13
2022-09-07T09:39:31.998Z,97.71
2022-09-07T09:42:24.163Z,96.81
2022-09-07T09:45:16.870Z,94.30
2022-09-07T09:48:11.306Z,94.17
2022-09-07T09:54:23.297Z,95.29
2022-09-07T09:57:37.382Z,97.06
2022-09-07T10:00:29.874Z,92.16
2022-09-07T10:06:26.037Z,90.37
2022-09-07T10:09:20.025Z,88.22
2022-09-07T10:12:22.494Z,88.33
2022-09-07T10:15:40.428Z,88.68
2022-09-07T10:18:53.907Z,87.79
2022-09-07T10:21:43.294Z,89.62
2022-09-07T10:24:39.062Z,88.95
2022-09-07T10:27:33.079Z,90.39
2022-09-07T10:30:20.288Z,89.84
2022-09-07T10:33:20.432Z,85.94
2022-09-07T10:36:14.608Z,88.22
2022-09-07T10:39:08.264Z,89.04
2022-09-07T10:42:13.429Z,85.96
2022-09-07T10:45:17.134Z,87.53
2022-09-07T10:48:29.242Z,85.30
2022-09-07T10:51:39.742Z,86.61
2022-09-07T10:55:00.298Z,85.13
2022-09-07T10:58:16.962Z,83.37
2022-09-07T11:01:26.399Z,82.04
2022-09-07T11:04:32.397Z,79.67
2022-09-07T11:07:42.792Z,77.54
2022-09-07T11:10:42.983Z,78.78
2022-09-07T11:13:55.501Z,77.25
2022-09-07T11:16:55.494Z,79.57
2022-09-07T11:19:57.803Z,77.72
2022-09-07T11:22:53.375Z,80.59
2022-09-07T11:25:53.703Z,89.80
2022-09-07T11:29:29.141Z,92.38
2022-09-07T11:32:03.145Z,92.36
2022-09-07T11:34:55.304Z,87.93
2022-09-07T11:37:48.015Z,85.33
2022-09-07T11:40:42.049Z,85.83
2022-09-07T11:43:37.853Z,89.74
2022-09-07T11:46:38.779Z,91.22
2022-09-07T11:49:26.153Z,93.39
2022-09-07T11:52:29.157Z,91.58
2022-09-07T11:55:25.478Z,86.80
2022-09-07T11:58:23.713Z,90.97
2022-09-07T12:01:36.831Z,91.28
2022-09-07T12:04:56.536Z,82.54
2022-09-07T12:08:06.053Z,84.13
2022-09-07T12:11:19.077Z,85.89
2022-09-07T12:14:38.813Z,84.94
2022-09-07T12:17:56.704Z,83.11
2022-09-07T12:20:48.516Z,78.77
2022-09-07T12:23:35.758Z,81.20
2022-09-07T12:26:50.001Z,82.35
2022-09-07T12:29:38.027Z,81.36
2022-09-07T12:32:55.845Z,80.05
2022-09-07T12:35:44.597Z,82.46
2022-09-07T12:38:31.837Z,76.67
2022-09-07T12:41:25.478Z,77.90
2022-09-07T12:44:18.677Z,78.57
2022-09-07T12:47:28.354Z,80.96
2022-09-07T12:50:28.435Z,77.90
2022-09-07T12:53:31.537Z,76.05
2022-09-07T12:56:36.948Z,78.37
2022-09-07T12:59:36.229Z,77.47
2022-09-07T13:02:48.984Z,77.31
2022-09-07T13:05:39.083Z,75.98
2022-09-07T13:08:50.880Z,75.49
2022-09-07T13:11:40.059Z,77.89
2022-09-07T13:14:29.364Z,76.54
2022-09-07T13:17:41.476Z,76.71
2022-09-07T13:20:36.150Z,75.02
2022-09-07T13:23:26.628Z,75.39
2022-09-07T13:26:53.665Z,71.21
2022-09-07T13:29:40.800Z,69.08
2022-09-07T13:35:45.205Z,72.40
2022-09-07T13:38:36.481Z,73.55
2022-09-07T13:41:36.941Z,71.98
2022-09-07T13:44:34.312Z,72.80
2022-09-07T13:47:41.328Z,71.48
2022-09-07T13:50:44.354Z,71.97
2022-09-07T13:53:46.194Z,71.92
2022-09-07T13:56:52.202Z,68.73
2022-09-07T13:59:41.677Z,68.75
2022-09-07T14:02:33.390Z,69.87
2022-09-07T14:05:22.312Z,71.60
2022-09-07T14:08:29.493Z,71.78
2022-09-07T14:11:39.226Z,69.16
2022-09-07T14:14:29.354Z,68.09
2022-09-07T14:17:18.993Z,69.81
2022-09-07T14:20:07.057Z,68.40
2022-09-07T14:22:54.316Z,67.01
2022-09-07T14:28:51.821Z,65.09
2022-09-07T14:31:39.386Z,67.56
2022-09-07T14:34:37.406Z,66.24
2022-09-07T14:37:24.745Z,67.69
2022-09-07T14:40:32.228Z,65.63
2022-09-07T14:43:26.602Z,65.46
2022-09-07T14:46:18.327Z,67.24
2022-09-07T14:49:16.345Z,67.79
2022-09-07T14:52:03.709Z,68.44
2022-09-07T14:54:52.672Z,68.30
2022-09-07T14:57:39.884Z,66.90
2022-09-07T15:00:31.861Z,66.79
2022-09-07T15:03:50.495Z,68.34
2022-09-07T15:09:48.695Z,67.03
2022-09-07T15:12:41.473Z,66.00
2022-09-07T15:15:41.077Z,62.52
2022-09-07T15:18:46.233Z,63.44
2022-09-07T15:21:36.524Z,63.23
2022-09-07T15:24:23.755Z,65.88
2022-09-07T15:27:24.573Z,65.35
2022-09-07T15:30:11.968Z,66.38
2022-09-07T15:32:59.785Z,65.05
2022-09-07T15:35:52.047Z,60.55
2022-09-07T15:41:47.105Z,61.88
2022-09-07T15:44:34.360Z,62.35
2022-09-07T15:50:28.714Z,62.38
2022-09-07T15:56:24.137Z,61.66
2022-09-07T15:59:11.910Z,61.67
2022-09-07T16:01:59.453Z,59.97
2022-09-07T16:04:46.907Z,61.80
2022-09-07T16:10:41.507Z,59.40
2022-09-07T16:13:31.368Z,58.97
2022-09-07T16:16:19.137Z,60.82
2022-09-07T16:19:07.611Z,62.17
2022-09-07T16:21:57.660Z,61.52
2022-09-07T16:24:44.958Z,59.56
2022-09-07T16:27:33.705Z,62.26
2022-09-07T16:30:22.189Z,61.63
2022-09-07T16:33:09.612Z,63.01
2022-09-07T16:36:01.409Z,61.91
2022-09-07T16:38:48.958Z,60.94
2022-09-07T16:41:36.219Z,61.55
2022-09-07T16:44:23.551Z,60.57
2022-09-07T16:47:12.613Z,59.30
2022-09-07T16:49:59.841Z,60.40
2022-09-07T16:52:47.187Z,60.13
2022-09-07T16:55:34.450Z,61.17
2022-09-07T16:58:37.786Z,59.90
2022-09-07T17:01:31.361Z,60.95
2022-09-07T17:04:18.932Z,61.59
2022-09-07T17:07:06.189Z,62.04
2022-09-07T17:09:54.165Z,62.70
2022-09-07T17:12:41.392Z,63.42
2022-09-07T17:15:28.629Z,62.95
2022-09-07T17:18:16.273Z,63.14
2022-09-07T17:21:03.982Z,63.87
2022-09-07T17:23:55.567Z,63.26
2022-09-07T17:26:43.196Z,63.28
2022-09-07T17:29:32.972Z,62.83
2022-09-07T17:32:24.497Z,63.22
2022-09-07T17:35:12.516Z,64.66
2022-09-07T17:38:01.344Z,63.98
2022-09-07T17:40:48.629Z,64.59
2022-09-07T17:43:43.635Z,63.13
2022-09-07T17:46:32.710Z,64.49
2022-09-07T17:49:20.002Z,63.84
2022-09-07T17:52:07.288Z,63.75
2022-09-07T17:54:55.385Z,63.53
2022-09-07T17:57:42.624Z,63.35
2022-09-07T18:00:29.948Z,62.49
2022-09-07T18:03:17.224Z,63.58
2022-09-07T18:06:05.055Z,66.71
2022-09-07T18:08:52.379Z,66.94
2022-09-07T18:11:49.808Z,67.77
2022-09-07T18:14:37.510Z,69.09
2022-09-07T18:17:24.760Z,67.33
2022-09-07T18:20:12.029Z,66.42
2022-09-07T18:22:59.611Z,68.21
2022-09-07T18:25:56.788Z,71.74
2022-09-07T18:31:51.522Z,72.87
2022-09-07T18:34:40.561Z,71.02
2022-09-07T18:37:28.326Z,71.39
2022-09-07T18:40:21.600Z,72.94
2022-09-07T18:43:09.544Z,75.90
2022-09-07T18:46:05.403Z,73.75
2022-09-07T18:48:54.034Z,76.61
2022-09-07T18:54:48.328Z,74.01
2022-09-07T18:57:36.525Z,74.14
2022-09-07T19:00:24.083Z,74.07
2022-09-07T19:03:11.632Z,75.81
2022-09-07T19:06:00.511Z,75.38
2022-09-07T19:08:48.339Z,76.19
2022-09-07T19:11:35.776Z,75.66
2022-09-07T19:14:23.106Z,77.34
2022-09-07T19:17:14.056Z,82.17
2022-09-07T19:20:03.576Z,82.99
2022-09-07T19:22:51.108Z,79.72
2022-09-07T19:25:41.995Z,80.69
2022-09-07T19:28:29.639Z,78.60
2022-09-07T19:31:16.994Z,79.01
2022-09-07T19:34:04.741Z,80.13
2022-09-07T19:36:51.962Z,80.65
2022-09-07T19:39:39.693Z,80.18
2022-09-07T19:42:27.589Z,81.73
2022-09-07T19:45:15.679Z,80.73
2022-09-07T19:48:02.907Z,80.93
2022-09-07T19:50:50.790Z,82.19
2022-09-07T19:53:43.525Z,82.45
2022-09-07T19:56:30.818Z,84.58
2022-09-07T19:59:19.629Z,83.28
2022-09-07T20:02:07.059Z,84.17
2022-09-07T20:04:54.517Z,83.88
2022-09-07T20:07:41.735Z,85.36
2022-09-07T20:10:31.233Z,86.78
2022-09-07T20:13:19.112Z,89.84
2022-09-07T20:16:10.484Z,90.34
2022-09-07T20:18:59.477Z,89.17
2022-09-07T20:21:48.019Z,88.96
2022-09-07T20:24:35.355Z,91.11
2022-09-07T20:27:22.556Z,93.48
2022-09-07T20:30:10.425Z,93.88
2022-09-07T20:32:58.293Z,94.87
2022-09-07T20:35:47.566Z,92.11
2022-09-07T20:38:43.882Z,91.14
2022-09-07T20:41:33.648Z,92.19
2022-09-07T20:44:20.864Z,92.09
2022-09-07T20:47:08.110Z,90.25
2022-09-07T20:49:55.373Z,91.73
2022-09-07T20:52:42.597Z,93.86
2022-09-07T20:55:29.975Z,92.91
2022-09-07T20:58:17.710Z,93.94
2022-09-07T21:01:05.563Z,90.94
2022-09-07T21:03:55.671Z,93.56
2022-09-07T21:06:42.866Z,94.41
2022-09-07T21:09:30.093Z,94.12
2022-09-07T21:12:17.295Z,93.82
2022-09-07T21:15:04.904Z,94.58
2022-09-07T21:17:52.149Z,94.04
2022-09-07T21:20:39.378Z,93.69
2022-09-07T21:23:26.832Z,92.36
2022-09-07T21:26:14.381Z,92.34
2022-09-07T21:29:03.745Z,92.74
2022-09-07T21:31:53.387Z,93.25
2022-09-07T21:34:40.665Z,93.38
2022-09-07T21:37:27.898Z,93.13
2022-09-07T21:40:15.201Z,94.72
2022-09-07T21:43:02.652Z,94.90
2022-09-07T21:45:50.970Z,94.92
2022-09-07T21:48:38.515Z,94.01
2022-09-07T21:51:26.920Z,94.49
2022-09-07T21:54:14.151Z,94.50
2022-09-07T21:57:01.354Z,94.96
2022-09-07T21:59:48.910Z,94.37
2022-09-07T22:02:36.211Z,93.19
2022-09-07T22:05:23.495Z,94.33
2022-09-07T22:08:10.828Z,93.59
2022-09-07T22:11:04.773Z,91.75
2022-09-07T22:14:01.718Z,92.12
2022-09-07T22:16:48.971Z,92.05
2022-09-07T22:19:36.680Z,92.40
2022-09-07T22:22:23.871Z,92.92
2022-09-07T22:25:11.056Z,91.81
2022-09-07T22:27:58.561Z,92.27
2022-09-07T22:30:45.829Z,91.88
2022-09-07T22:33:33.071Z,92.24
2022-09-07T22:36:20.541Z,91.28
2022-09-07T22:39:11.518Z,91.13
2022-09-07T22:41:58.838Z,92.63
2022-09-07T22:44:46.058Z,90.92
2022-09-07T22:47:33.353Z,93.34
2022-09-07T22:50:20.558Z,91.94
2022-09-07T22:53:07.784Z,93.50
2022-09-07T22:55:55.618Z,91.56
2022-09-07T22:58:51.435Z,92.29
2022-09-07T23:01:38.871Z,94.17
2022-09-07T23:04:31.396Z,93.02
2022-09-07T23:07:18.958Z,94.12
2022-09-07T23:10:06.716Z,93.28
2022-09-07T23:12:54.188Z,94.87
2022-09-07T23:15:44.972Z,95.99
2022-09-07T23:18:33.217Z,94.14
2022-09-07T23:21:20.477Z,97.22
2022-09-07T23:24:07.840Z,97.41
2022-09-07T23:26:55.057Z,98.04
2022-09-07T23:29:42.313Z,99.19
2022-09-07T23:32:29.515Z,98.95
2022-09-07T23:35:16.881Z,98.07
2022-09-07T23:38:04.117Z,97.32
2022-09-07T23:40:51.547Z,97.18
2022-09-07T23:43:38.744Z,94.76
2022-09-07T23:46:26.055Z,95.81
2022-09-07T23:49:13.309Z,97.54
2022-09-07T23:52:00.513Z,97.25
2022-09-07T23:54:47.710Z,96.58
2022-09-07T23:57:34.940Z,97.73
